sensor_id;sensor_type;location;lat;lon;timestamp;pressure;altitude;pressure_sealevel;temperature;humidity
74573;BME280;63071;51.526;-0.134;2022-12-29T00:01:35;99050.88;;;24.19;31.45
74573;BME280;63071;51.526;-0.134;2022-12-29T00:04:02;99055.03;;;24.20;31.22
74573;BME280;63071;51.526;-0.134;2022-12-29T00:06:28;99050.47;;;24.21;31.60
74573;BME280;63071;51.526;-0.134;2022-12-29T00:08:53;99049.78;;;24.17;31.27
74573;BME280;63071;51.526;-0.134;2022-12-29T00:11:26;99046.69;;;24.18;31.42
74573;BME280;63071;51.526;-0.134;2022-12-29T00:13:53;99046.69;;;24.18;31.70
74573;BME280;63071;51.526;-0.134;2022-12-29T00:16:40;99038.69;;;24.18;31.42
74573;BME280;63071;51.526;-0.134;2022-12-29T00:19:06;99028.44;;;24.17;31.56
74573;BME280;63071;51.526;-0.134;2022-12-29T00:21:51;99037.19;;;24.17;31.30
74573;BME280;63071;51.526;-0.134;2022-12-29T00:24:36;99022.66;;;24.18;31.31
74573;BME280;63071;51.526;-0.134;2022-12-29T00:27:20;99035.69;;;24.16;31.60
74573;BME280;63071;51.526;-0.134;2022-12-29T00:30:16;99027.66;;;24.16;31.46
74573;BME280;63071;51.526;-0.134;2022-12-29T00:33:11;99032.59;;;24.18;31.39
74573;BME280;63071;51.526;-0.134;2022-12-29T00:39:03;99033.53;;;24.11;31.62
74573;BME280;63071;51.526;-0.134;2022-12-29T00:41:49;99041.00;;;24.16;30.98
74573;BME280;63071;51.526;-0.134;2022-12-29T00:44:33;99047.53;;;24.15;31.32
74573;BME280;63071;51.526;-0.134;2022-12-29T00:46:59;99029.50;;;24.19;31.34
74573;BME280;63071;51.526;-0.134;2022-12-29T00:49:28;99026.84;;;24.19;31.00
74573;BME280;63071;51.526;-0.134;2022-12-29T00:51:58;99038.34;;;24.16;31.11
74573;BME280;63071;51.526;-0.134;2022-12-29T00:54:24;99037.19;;;24.17;31.17
74573;BME280;63071;51.526;-0.134;2022-12-29T00:56:51;99032.19;;;24.19;31.20
74573;BME280;63071;51.526;-0.134;2022-12-29T00:59:18;99030.25;;;24.20;31.20
74573;BME280;63071;51.526;-0.134;2022-12-29T01:01:45;99031.84;;;24.17;31.03
74573;BME280;63071;51.526;-0.134;2022-12-29T01:04:11;99029.19;;;24.17;31.03
74573;BME280;63071;51.526;-0.134;2022-12-29T01:06:39;99034.19;;;24.15;31.23
74573;BME280;63071;51.526;-0.134;2022-12-29T01:09:06;99041.44;;;24.15;31.36
74573;BME280;63071;51.526;-0.134;2022-12-29T01:11:51;99030.44;;;24.13;31.42
74573;BME280;63071;51.526;-0.134;2022-12-29T01:14:18;99033.84;;;24.13;30.96
74573;BME280;63071;51.526;-0.134;2022-12-29T01:16:44;99035.34;;;24.14;31.08
74573;BME280;63071;51.526;-0.134;2022-12-29T01:19:11;99020.09;;;24.15;30.91
74573;BME280;63071;51.526;-0.134;2022-12-29T01:21:37;99011.00;;;24.12;30.98
74573;BME280;63071;51.526;-0.134;2022-12-29T01:24:03;99015.91;;;24.14;31.00
74573;BME280;63071;51.526;-0.134;2022-12-29T01:26:28;99013.66;;;24.12;30.89
74573;BME280;63071;51.526;-0.134;2022-12-29T01:28:54;99020.50;;;24.13;31.00
74573;BME280;63071;51.526;-0.134;2022-12-29T01:31:19;99019.25;;;24.18;31.07
74573;BME280;63071;51.526;-0.134;2022-12-29T01:33:45;99009.75;;;24.17;30.72
74573;BME280;63071;51.526;-0.134;2022-12-29T01:36:13;99013.56;;;24.16;30.72
74573;BME280;63071;51.526;-0.134;2022-12-29T01:38:40;99010.91;;;24.16;30.67
74573;BME280;63071;51.526;-0.134;2022-12-29T01:41:08;99030.34;;;24.16;30.51
74573;BME280;63071;51.526;-0.134;2022-12-29T01:43:47;99039.53;;;24.15;30.55
74573;BME280;63071;51.526;-0.134;2022-12-29T01:46:34;99035.84;;;24.09;30.72
74573;BME280;63071;51.526;-0.134;2022-12-29T01:49:23;99030.59;;;24.06;30.67
74573;BME280;63071;51.526;-0.134;2022-12-29T01:51:59;99032.00;;;24.10;30.51
74573;BME280;63071;51.526;-0.134;2022-12-29T01:54:38;99035.13;;;24.09;30.26
74573;BME280;63071;51.526;-0.134;2022-12-29T01:57:10;99034.34;;;24.08;30.80
74573;BME280;63071;51.526;-0.134;2022-12-29T01:59:43;99044.59;;;24.10;30.66
74573;BME280;63071;51.526;-0.134;2022-12-29T02:02:11;99031.34;;;24.06;30.73
74573;BME280;63071;51.526;-0.134;2022-12-29T02:04:41;99033.94;;;24.10;30.48
74573;BME280;63071;51.526;-0.134;2022-12-29T02:07:17;99040.44;;;24.09;30.63
74573;BME280;63071;51.526;-0.134;2022-12-29T02:09:47;99024.06;;;24.07;30.21
74573;BME280;63071;51.526;-0.134;2022-12-29T02:12:13;99032.84;;;24.07;30.72
74573;BME280;63071;51.526;-0.134;2022-12-29T02:14:39;99033.19;;;24.09;30.63
74573;BME280;63071;51.526;-0.134;2022-12-29T02:17:31;99038.53;;;24.09;30.38
74573;BME280;63071;51.526;-0.134;2022-12-29T02:20:24;99042.69;;;24.10;30.38
74573;BME280;63071;51.526;-0.134;2022-12-29T02:31:26;99047.69;;;24.08;30.40
74573;BME280;63071;51.526;-0.134;2022-12-29T02:34:03;99049.69;;;24.04;30.16
74573;BME280;63071;51.526;-0.134;2022-12-29T02:42:47;99044.34;;;24.04;30.27
74573;BME280;63071;51.526;-0.134;2022-12-29T02:48:39;99053.88;;;24.05;30.04
74573;BME280;63071;51.526;-0.134;2022-12-29T02:51:29;99031.34;;;24.06;30.18
74573;BME280;63071;51.526;-0.134;2022-12-29T02:53:57;99037.41;;;24.07;30.15
74573;BME280;63071;51.526;-0.134;2022-12-29T02:56:42;99023.75;;;24.05;30.16
74573;BME280;63071;51.526;-0.134;2022-12-29T02:59:09;99027.00;;;24.12;29.85
74573;BME280;63071;51.526;-0.134;2022-12-29T03:02:00;99031.66;;;24.08;29.80
74573;BME280;63071;51.526;-0.134;2022-12-29T03:04:53;99051.13;;;24.09;29.93
74573;BME280;63071;51.526;-0.134;2022-12-29T03:10:28;99051.19;;;24.05;30.07
74573;BME280;63071;51.526;-0.134;2022-12-29T03:19:00;99058.03;;;24.06;30.00
74573;BME280;63071;51.526;-0.134;2022-12-29T03:21:32;99061.44;;;24.07;29.83
74573;BME280;63071;51.526;-0.134;2022-12-29T03:24:22;99059.22;;;24.05;29.79
74573;BME280;63071;51.526;-0.134;2022-12-29T03:26:51;99040.84;;;24.07;30.10
74573;BME280;63071;51.526;-0.134;2022-12-29T03:29:20;99044.69;;;24.06;30.00
74573;BME280;63071;51.526;-0.134;2022-12-29T03:31:48;99051.13;;;24.09;29.98
74573;BME280;63071;51.526;-0.134;2022-12-29T03:34:19;99047.28;;;24.10;29.81
74573;BME280;63071;51.526;-0.134;2022-12-29T03:36:54;99061.03;;;24.08;29.70
74573;BME280;63071;51.526;-0.134;2022-12-29T03:39:25;99057.94;;;24.10;29.87
74573;BME280;63071;51.526;-0.134;2022-12-29T03:41:58;99050.03;;;24.06;29.54
74573;BME280;63071;51.526;-0.134;2022-12-29T03:44:32;99045.44;;;24.07;29.47
74573;BME280;63071;51.526;-0.134;2022-12-29T03:46:58;99045.78;;;24.09;29.49
74573;BME280;63071;51.526;-0.134;2022-12-29T03:49:24;99041.94;;;24.10;29.77
74573;BME280;63071;51.526;-0.134;2022-12-29T03:51:49;99045.03;;;24.08;29.76
74573;BME280;63071;51.526;-0.134;2022-12-29T03:54:14;99040.78;;;24.11;29.85
74573;BME280;63071;51.526;-0.134;2022-12-29T03:56:40;99043.03;;;24.12;29.63
74573;BME280;63071;51.526;-0.134;2022-12-29T03:59:05;99030.44;;;24.13;29.42
74573;BME280;63071;51.526;-0.134;2022-12-29T04:01:31;99029.66;;;24.12;29.54
74573;BME280;63071;51.526;-0.134;2022-12-29T04:03:56;99027.34;;;24.14;29.24
74573;BME280;63071;51.526;-0.134;2022-12-29T04:06:22;99025.00;;;24.16;29.28
74573;BME280;63071;51.526;-0.134;2022-12-29T04:08:48;99021.25;;;24.14;29.73
74573;BME280;63071;51.526;-0.134;2022-12-29T04:11:14;99020.19;;;24.11;29.36
74573;BME280;63071;51.526;-0.134;2022-12-29T04:13:39;99032.00;;;24.10;29.18
74573;BME280;63071;51.526;-0.134;2022-12-29T04:16:06;99018.66;;;24.10;29.37
74573;BME280;63071;51.526;-0.134;2022-12-29T04:18:32;99013.31;;;24.10;29.43
74573;BME280;63071;51.526;-0.134;2022-12-29T04:20:57;99038.13;;;24.11;29.38
74573;BME280;63071;51.526;-0.134;2022-12-29T04:23:26;99028.59;;;24.10;29.75
74573;BME280;63071;51.526;-0.134;2022-12-29T04:25:52;99027.00;;;24.12;28.97
74573;BME280;63071;51.526;-0.134;2022-12-29T04:28:19;99033.19;;;24.09;29.63
74573;BME280;63071;51.526;-0.134;2022-12-29T04:30:45;99033.66;;;24.04;29.41
74573;BME280;63071;51.526;-0.134;2022-12-29T04:33:11;99045.03;;;24.08;29.56
74573;BME280;63071;51.526;-0.134;2022-12-29T04:35:37;99054.88;;;24.11;29.21
74573;BME280;63071;51.526;-0.134;2022-12-29T04:38:03;99036.94;;;24.12;29.14
74573;BME280;63071;51.526;-0.134;2022-12-29T04:40:29;99039.28;;;24.10;29.54
74573;BME280;63071;51.526;-0.134;2022-12-29T04:42:54;99043.53;;;24.07;29.71
74573;BME280;63071;51.526;-0.134;2022-12-29T04:45:20;99054.22;;;24.07;29.35
74573;BME280;63071;51.526;-0.134;2022-12-29T04:47:45;99060.38;;;24.04;29.54
74573;BME280;63071;51.526;-0.134;2022-12-29T04:50:11;99056.53;;;24.05;29.81
74573;BME280;63071;51.526;-0.134;2022-12-29T04:52:36;99065.69;;;24.04;29.62
74573;BME280;63071;51.526;-0.134;2022-12-29T04:55:03;99056.09;;;24.07;29.81
74573;BME280;63071;51.526;-0.134;2022-12-29T04:57:29;99064.88;;;24.07;29.66
74573;BME280;63071;51.526;-0.134;2022-12-29T04:59:54;99073.22;;;24.09;29.54
74573;BME280;63071;51.526;-0.134;2022-12-29T05:02:19;99071.72;;;24.08;30.07
74573;BME280;63071;51.526;-0.134;2022-12-29T05:04:45;99067.97;;;24.06;29.65
74573;BME280;63071;51.526;-0.134;2022-12-29T05:07:11;99071.44;;;24.03;30.03
74573;BME280;63071;51.526;-0.134;2022-12-29T05:09:37;99078.22;;;24.07;30.03
74573;BME280;63071;51.526;-0.134;2022-12-29T05:12:02;99091.56;;;24.07;29.98
74573;BME280;63071;51.526;-0.134;2022-12-29T05:14:28;99090.81;;;24.07;29.99
74573;BME280;63071;51.526;-0.134;2022-12-29T05:16:53;99099.31;;;24.02;29.54
74573;BME280;63071;51.526;-0.134;2022-12-29T05:19:19;99119.16;;;24.00;30.12
74573;BME280;63071;51.526;-0.134;2022-12-29T05:21:44;99120.31;;;23.99;29.96
74573;BME280;63071;51.526;-0.134;2022-12-29T05:24:10;99104.72;;;23.98;29.88
74573;BME280;63071;51.526;-0.134;2022-12-29T05:26:35;99135.16;;;24.00;30.28
74573;BME280;63071;51.526;-0.134;2022-12-29T05:29:01;99139.34;;;24.02;29.89
74573;BME280;63071;51.526;-0.134;2022-12-29T05:31:26;99129.06;;;24.00;29.76
74573;BME280;63071;51.526;-0.134;2022-12-29T05:33:52;99145.44;;;24.02;30.16
74573;BME280;63071;51.526;-0.134;2022-12-29T05:36:17;99143.09;;;24.04;30.13
74573;BME280;63071;51.526;-0.134;2022-12-29T05:38:43;99165.63;;;24.03;29.97
74573;BME280;63071;51.526;-0.134;2022-12-29T05:41:09;99180.41;;;24.08;30.19
74573;BME280;63071;51.526;-0.134;2022-12-29T05:43:34;99184.97;;;24.07;30.01
74573;BME280;63071;51.526;-0.134;2022-12-29T05:46:00;99189.16;;;24.08;30.17
74573;BME280;63071;51.526;-0.134;2022-12-29T05:48:25;99197.94;;;24.09;29.86
74573;BME280;63071;51.526;-0.134;2022-12-29T05:50:51;99202.09;;;24.10;30.03
74573;BME280;63071;51.526;-0.134;2022-12-29T05:53:18;99225.28;;;24.13;29.97
74573;BME280;63071;51.526;-0.134;2022-12-29T05:55:46;99223.38;;;24.13;29.74
74573;BME280;63071;51.526;-0.134;2022-12-29T05:58:11;99220.69;;;24.13;30.15
74573;BME280;63071;51.526;-0.134;2022-12-29T06:00:37;99233.31;;;24.13;29.98
74573;BME280;63071;51.526;-0.134;2022-12-29T06:03:03;99236.38;;;24.11;30.17
74573;BME280;63071;51.526;-0.134;2022-12-29T06:05:29;99254.22;;;24.14;30.11
74573;BME280;63071;51.526;-0.134;2022-12-29T06:07:55;99249.66;;;24.15;30.36
74573;BME280;63071;51.526;-0.134;2022-12-29T06:10:20;99261.09;;;24.15;30.16
74573;BME280;63071;51.526;-0.134;2022-12-29T06:12:45;99255.75;;;24.15;29.96
74573;BME280;63071;51.526;-0.134;2022-12-29T06:15:12;99271.00;;;24.15;30.19
74573;BME280;63071;51.526;-0.134;2022-12-29T06:17:38;99267.16;;;24.16;30.08
74573;BME280;63071;51.526;-0.134;2022-12-29T06:20:04;99271.00;;;24.15;30.07
74573;BME280;63071;51.526;-0.134;2022-12-29T06:22:30;99277.84;;;24.16;29.83
74573;BME280;63071;51.526;-0.134;2022-12-29T06:24:56;99277.09;;;24.15;29.89
74573;BME280;63071;51.526;-0.134;2022-12-29T06:27:22;99290.84;;;24.14;29.83
74573;BME280;63071;51.526;-0.134;2022-12-29T06:29:47;99290.44;;;24.15;30.17
74573;BME280;63071;51.526;-0.134;2022-12-29T06:32:13;99306.47;;;24.15;29.76
74573;BME280;63071;51.526;-0.134;2022-12-29T06:34:38;99289.28;;;24.16;29.96
74573;BME280;63071;51.526;-0.134;2022-12-29T06:37:04;99305.28;;;24.16;29.88
74573;BME280;63071;51.526;-0.134;2022-12-29T06:39:29;99307.94;;;24.16;29.95
74573;BME280;63071;51.526;-0.134;2022-12-29T06:41:54;99315.97;;;24.16;30.11
74573;BME280;63071;51.526;-0.134;2022-12-29T06:44:21;99329.66;;;24.18;29.90
74573;BME280;63071;51.526;-0.134;2022-12-29T06:46:47;99335.00;;;24.18;30.14
74573;BME280;63071;51.526;-0.134;2022-12-29T06:49:12;99340.34;;;24.18;30.12
74573;BME280;63071;51.526;-0.134;2022-12-29T06:51:38;99346.44;;;24.19;29.77
74573;BME280;63071;51.526;-0.134;2022-12-29T06:54:03;99352.13;;;24.21;30.06
74573;BME280;63071;51.526;-0.134;2022-12-29T06:56:29;99367.38;;;24.20;29.80
74573;BME280;63071;51.526;-0.134;2022-12-29T06:58:54;99364.69;;;24.20;29.96
74573;BME280;63071;51.526;-0.134;2022-12-29T07:01:20;99376.91;;;24.22;29.94
74573;BME280;63071;51.526;-0.134;2022-12-29T07:03:45;99381.91;;;24.19;29.74
74573;BME280;63071;51.526;-0.134;2022-12-29T07:06:11;99394.84;;;24.21;30.12
74573;BME280;63071;51.526;-0.134;2022-12-29T07:08:36;99392.56;;;24.19;30.16
74573;BME280;63071;51.526;-0.134;2022-12-29T07:11:01;99396.34;;;24.22;29.91
74573;BME280;63071;51.526;-0.134;2022-12-29T07:13:27;99390.25;;;24.22;29.75
74573;BME280;63071;51.526;-0.134;2022-12-29T07:15:52;99402.41;;;24.23;29.94
74573;BME280;63071;51.526;-0.134;2022-12-29T07:18:18;99406.28;;;24.22;29.86
74573;BME280;63071;51.526;-0.134;2022-12-29T07:20:43;99408.94;;;24.22;29.85
74573;BME280;63071;51.526;-0.134;2022-12-29T07:23:09;99422.28;;;24.22;29.45
74573;BME280;63071;51.526;-0.134;2022-12-29T07:25:34;99415.03;;;24.22;29.83
74573;BME280;63071;51.526;-0.134;2022-12-29T07:28:02;99416.94;;;24.22;29.89
74573;BME280;63071;51.526;-0.134;2022-12-29T07:30:27;99426.09;;;24.20;29.65
74573;BME280;63071;51.526;-0.134;2022-12-29T07:32:53;99423.78;;;24.23;29.57
74573;BME280;63071;51.526;-0.134;2022-12-29T07:35:18;99425.31;;;24.24;30.01
74573;BME280;63071;51.526;-0.134;2022-12-29T07:37:44;99436.38;;;24.22;29.53
74573;BME280;63071;51.526;-0.134;2022-12-29T07:40:10;99455.06;;;24.22;29.72
74573;BME280;63071;51.526;-0.134;2022-12-29T07:42:36;99457.75;;;24.22;29.63
74573;BME280;63071;51.526;-0.134;2022-12-29T07:45:01;99466.50;;;24.23;29.81
74573;BME280;63071;51.526;-0.134;2022-12-29T07:47:27;99462.72;;;24.20;29.71
74573;BME280;63071;51.526;-0.134;2022-12-29T07:49:53;99465.00;;;24.22;29.80
74573;BME280;63071;51.526;-0.134;2022-12-29T07:52:18;99475.69;;;24.22;29.91
74573;BME280;63071;51.526;-0.134;2022-12-29T07:54:44;99485.63;;;24.21;29.73
74573;BME280;63071;51.526;-0.134;2022-12-29T07:57:09;99476.09;;;24.20;29.57
74573;BME280;63071;51.526;-0.134;2022-12-29T07:59:34;99488.28;;;24.21;29.26
74573;BME280;63071;51.526;-0.134;2022-12-29T08:02:00;99483.69;;;24.22;29.48
74573;BME280;63071;51.526;-0.134;2022-12-29T08:04:26;99481.78;;;24.22;29.63
74573;BME280;63071;51.526;-0.134;2022-12-29T08:06:51;99490.53;;;24.23;29.70
74573;BME280;63071;51.526;-0.134;2022-12-29T08:09:17;99499.31;;;24.23;29.71
74573;BME280;63071;51.526;-0.134;2022-12-29T08:11:42;99499.31;;;24.23;29.54
74573;BME280;63071;51.526;-0.134;2022-12-29T08:14:08;99512.66;;;24.23;29.16
74573;BME280;63071;51.526;-0.134;2022-12-29T08:16:34;99513.81;;;24.22;29.38
74573;BME280;63071;51.526;-0.134;2022-12-29T08:18:59;99511.13;;;24.22;29.55
74573;BME280;63071;51.526;-0.134;2022-12-29T08:21:27;99515.34;;;24.23;29.35
74573;BME280;63071;51.526;-0.134;2022-12-29T08:23:53;99521.06;;;24.22;29.46
74573;BME280;63071;51.526;-0.134;2022-12-29T08:26:18;99524.50;;;24.22;29.11
74573;BME280;63071;51.526;-0.134;2022-12-29T08:28:44;99529.81;;;24.22;29.72
74573;BME280;63071;51.526;-0.134;2022-12-29T08:31:09;99542.44;;;24.22;29.42
74573;BME280;63071;51.526;-0.134;2022-12-29T08:33:35;99545.84;;;24.22;29.57
74573;BME280;63071;51.526;-0.134;2022-12-29T08:36:02;99553.84;;;24.22;29.21
74573;BME280;63071;51.526;-0.134;2022-12-29T08:38:28;99557.28;;;24.23;29.34
74573;BME280;63071;51.526;-0.134;2022-12-29T08:40:54;99572.53;;;24.22;29.23
74573;BME280;63071;51.526;-0.134;2022-12-29T08:43:19;99565.72;;;24.21;29.29
74573;BME280;63071;51.526;-0.134;2022-12-29T08:45:45;99575.63;;;24.20;29.40
74573;BME280;63071;51.526;-0.134;2022-12-29T08:48:10;99574.47;;;24.22;29.20
74573;BME280;63071;51.526;-0.134;2022-12-29T08:50:36;99577.13;;;24.22;29.54
74573;BME280;63071;51.526;-0.134;2022-12-29T08:53:01;99577.13;;;24.22;29.53
74573;BME280;63071;51.526;-0.134;2022-12-29T08:55:26;99576.78;;;24.19;29.37
74573;BME280;63071;51.526;-0.134;2022-12-29T08:57:52;99580.22;;;24.20;29.36
74573;BME280;63071;51.526;-0.134;2022-12-29T09:00:17;99596.97;;;24.20;29.52
74573;BME280;63071;51.526;-0.134;2022-12-29T09:02:43;99595.47;;;24.19;29.20
74573;BME280;63071;51.526;-0.134;2022-12-29T09:05:09;99606.16;;;24.19;29.38
74573;BME280;63071;51.526;-0.134;2022-12-29T09:07:35;99596.22;;;24.20;29.39
74573;BME280;63071;51.526;-0.134;2022-12-29T09:10:01;99612.25;;;24.20;29.38
74573;BME280;63071;51.526;-0.134;2022-12-29T09:12:27;99593.94;;;24.18;29.58
74573;BME280;63071;51.526;-0.134;2022-12-29T09:14:52;99600.81;;;24.19;29.52
74573;BME280;63071;51.526;-0.134;2022-12-29T09:17:18;99596.97;;;24.20;29.07
74573;BME280;63071;51.526;-0.134;2022-12-29T09:20:02;99589.03;;;24.17;29.30
74573;BME280;63071;51.526;-0.134;2022-12-29T09:22:28;99600.06;;;24.19;29.39
74573;BME280;63071;51.526;-0.134;2022-12-29T09:24:53;99614.16;;;24.19;29.82
74573;BME280;63071;51.526;-0.134;2022-12-29T09:27:19;99606.16;;;24.19;29.24
74573;BME280;63071;51.526;-0.134;2022-12-29T09:29:44;99613.00;;;24.20;29.34
74573;BME280;63071;51.526;-0.134;2022-12-29T09:32:10;99619.09;;;24.21;29.31
74573;BME280;63071;51.526;-0.134;2022-12-29T09:34:35;99604.97;;;24.20;29.54
74573;BME280;63071;51.526;-0.134;2022-12-29T09:37:00;99604.59;;;24.22;29.70
74573;BME280;63071;51.526;-0.134;2022-12-29T09:39:26;99622.53;;;24.22;29.31
74573;BME280;63071;51.526;-0.134;2022-12-29T09:42:06;99621.34;;;24.23;29.23
74573;BME280;63071;51.526;-0.134;2022-12-29T09:47:10;99645.38;;;24.23;29.27
74573;BME280;63071;51.526;-0.134;2022-12-29T09:52:36;99644.25;;;24.24;29.25
74573;BME280;63071;51.526;-0.134;2022-12-29T09:55:13;99666.34;;;24.24;29.15
74573;BME280;63071;51.526;-0.134;2022-12-29T09:57:56;99661.00;;;24.24;29.30
74573;BME280;63071;51.526;-0.134;2022-12-29T10:00:36;99681.63;;;24.24;29.37
74573;BME280;63071;51.526;-0.134;2022-12-29T10:03:24;99669.84;;;24.21;29.57
74573;BME280;63071;51.526;-0.134;2022-12-29T10:06:11;99673.25;;;24.22;29.55
74573;BME280;63071;51.526;-0.134;2022-12-29T10:09:01;99691.13;;;24.25;28.88
74573;BME280;63071;51.526;-0.134;2022-12-29T10:14:27;99701.81;;;24.25;29.37
74573;BME280;63071;51.526;-0.134;2022-12-29T10:20:14;99713.63;;;24.27;29.31
74573;BME280;63071;51.526;-0.134;2022-12-29T10:25:39;99713.19;;;24.29;29.18
74573;BME280;63071;51.526;-0.134;2022-12-29T10:30:50;99725.03;;;24.28;29.04
74573;BME280;63071;51.526;-0.134;2022-12-29T10:33:35;99728.84;;;24.27;28.96
74573;BME280;63071;51.526;-0.134;2022-12-29T10:36:15;99734.97;;;24.27;29.42
74573;BME280;63071;51.526;-0.134;2022-12-29T10:39:04;99736.88;;;24.27;28.80
74573;BME280;63071;51.526;-0.134;2022-12-29T10:44:32;99730.38;;;24.28;29.27
74573;BME280;63071;51.526;-0.134;2022-12-29T10:47:04;99728.09;;;24.26;29.04
74573;BME280;63071;51.526;-0.134;2022-12-29T10:49:37;99744.88;;;24.27;29.39
74573;BME280;63071;51.526;-0.134;2022-12-29T10:52:05;99739.53;;;24.27;29.06
74573;BME280;63071;51.526;-0.134;2022-12-29T10:55:00;99739.53;;;24.27;29.11
74573;BME280;63071;51.526;-0.134;2022-12-29T10:57:37;99739.50;;;24.30;29.22
74573;BME280;63071;51.526;-0.134;2022-12-29T11:00:13;99752.47;;;24.32;28.97
74573;BME280;63071;51.526;-0.134;2022-12-29T11:08:31;99766.16;;;24.34;29.07
74573;BME280;63071;51.526;-0.134;2022-12-29T11:11:04;99767.66;;;24.35;29.06
74573;BME280;63071;51.526;-0.134;2022-12-29T11:13:54;99773.78;;;24.35;29.06
74573;BME280;63071;51.526;-0.134;2022-12-29T11:16:33;99771.88;;;24.36;28.93
74573;BME280;63071;51.526;-0.134;2022-12-29T11:19:00;99784.47;;;24.35;29.10
74573;BME280;63071;51.526;-0.134;2022-12-29T11:21:36;99788.63;;;24.36;29.06
74573;BME280;63071;51.526;-0.134;2022-12-29T11:24:26;99798.94;;;24.38;29.10
74573;BME280;63071;51.526;-0.134;2022-12-29T11:27:09;99782.56;;;24.36;28.91
74573;BME280;63071;51.526;-0.134;2022-12-29T11:29:41;99782.91;;;24.38;29.33
74573;BME280;63071;51.526;-0.134;2022-12-29T11:32:28;99790.53;;;24.39;28.81
74573;BME280;63071;51.526;-0.134;2022-12-29T11:34:56;99791.28;;;24.40;28.88
74573;BME280;63071;51.526;-0.134;2022-12-29T11:37:40;99788.25;;;24.38;28.94
74573;BME280;63071;51.526;-0.134;2022-12-29T11:40:17;99801.97;;;24.40;29.07
74573;BME280;63071;51.526;-0.134;2022-12-29T11:42:55;99797.00;;;24.38;28.66
74573;BME280;63071;51.526;-0.134;2022-12-29T11:45:28;99809.22;;;24.39;29.04
74573;BME280;63071;51.526;-0.134;2022-12-29T11:47:56;99812.63;;;24.40;29.09
74573;BME280;63071;51.526;-0.134;2022-12-29T11:50:32;99808.03;;;24.40;28.75
74573;BME280;63071;51.526;-0.134;2022-12-29T11:53:05;99803.09;;;24.39;29.11
74573;BME280;63071;51.526;-0.134;2022-12-29T11:55:33;99805.03;;;24.38;28.82
74573;BME280;63071;51.526;-0.134;2022-12-29T11:58:03;99818.72;;;24.40;28.43
74573;BME280;63071;51.526;-0.134;2022-12-29T12:00:34;99801.97;;;24.40;28.89
74573;BME280;63071;51.526;-0.134;2022-12-29T12:03:18;99816.06;;;24.40;28.84
74573;BME280;63071;51.526;-0.134;2022-12-29T12:08:45;99813.00;;;24.42;28.88
74573;BME280;63071;51.526;-0.134;2022-12-29T12:11:16;99817.16;;;24.43;28.59
74573;BME280;63071;51.526;-0.134;2022-12-29T12:14:02;99829.03;;;24.42;28.63
74573;BME280;63071;51.526;-0.134;2022-12-29T12:16:39;99829.41;;;24.40;28.36
74573;BME280;63071;51.526;-0.134;2022-12-29T12:19:32;99827.91;;;24.39;28.46
74573;BME280;63071;51.526;-0.134;2022-12-29T12:27:40;99836.31;;;24.38;28.44
74573;BME280;63071;51.526;-0.134;2022-12-29T12:30:22;99838.59;;;24.39;28.16
74573;BME280;63071;51.526;-0.134;2022-12-29T12:33:03;99821.78;;;24.39;28.28
74573;BME280;63071;51.526;-0.134;2022-12-29T12:41:12;99830.16;;;24.41;28.51
74573;BME280;63071;51.526;-0.134;2022-12-29T12:43:47;99834.38;;;24.42;28.39
74573;BME280;63071;51.526;-0.134;2022-12-29T13:08:26;99821.38;;;24.44;28.52
74573;BME280;63071;51.526;-0.134;2022-12-29T13:11:33;99836.22;;;24.45;28.45
74573;BME280;63071;51.526;-0.134;2022-12-29T13:16:54;99838.88;;;24.45;28.22
74573;BME280;63071;51.526;-0.134;2022-12-29T13:22:09;99835.88;;;24.43;28.09
74573;BME280;63071;51.526;-0.134;2022-12-29T13:28:13;99834.38;;;24.42;27.99
74573;BME280;63071;51.526;-0.134;2022-12-29T13:38:24;99831.69;;;24.42;27.55
74573;BME280;63071;51.526;-0.134;2022-12-29T13:41:07;99844.22;;;24.45;27.90
74573;BME280;63071;51.526;-0.134;2022-12-29T13:43:38;99832.75;;;24.48;27.70
74573;BME280;63071;51.526;-0.134;2022-12-29T13:46:13;99839.25;;;24.47;27.78
74573;BME280;63071;51.526;-0.134;2022-12-29T13:48:49;99840.78;;;24.48;28.32
74573;BME280;63071;51.526;-0.134;2022-12-29T13:51:17;99833.16;;;24.47;28.04
74573;BME280;63071;51.526;-0.134;2022-12-29T13:59:31;99846.13;;;24.48;28.00
74573;BME280;63071;51.526;-0.134;2022-12-29T14:02:21;99848.03;;;24.48;27.96
74573;BME280;63071;51.526;-0.134;2022-12-29T14:07:56;99849.94;;;24.47;28.41
74573;BME280;63071;51.526;-0.134;2022-12-29T14:10:36;99850.72;;;24.48;28.00
74573;BME280;63071;51.526;-0.134;2022-12-29T14:13:12;99843.84;;;24.47;28.43
74573;BME280;63071;51.526;-0.134;2022-12-29T14:15:41;99857.19;;;24.47;27.95
74573;BME280;63071;51.526;-0.134;2022-12-29T14:18:11;99865.22;;;24.47;27.92
74573;BME280;63071;51.526;-0.134;2022-12-29T14:20:49;99859.88;;;24.47;28.10
74573;BME280;63071;51.526;-0.134;2022-12-29T14:23:27;99861.44;;;24.44;27.96
74573;BME280;63071;51.526;-0.134;2022-12-29T14:28:43;99877.47;;;24.44;28.26
74573;BME280;63071;51.526;-0.134;2022-12-29T14:33:41;99887.78;;;24.42;27.69
74573;BME280;63071;51.526;-0.134;2022-12-29T14:39:41;99889.69;;;24.42;27.64
74573;BME280;63071;51.526;-0.134;2022-12-29T14:45:07;99906.47;;;24.42;27.30
74573;BME280;63071;51.526;-0.134;2022-12-29T14:47:50;99894.25;;;24.41;27.56
74573;BME280;63071;51.526;-0.134;2022-12-29T14:50:39;99893.88;;;24.43;27.83
74573;BME280;63071;51.526;-0.134;2022-12-29T14:53:06;99890.44;;;24.42;27.86
74573;BME280;63071;51.526;-0.134;2022-12-29T14:55:57;99895.03;;;24.42;27.81
74573;BME280;63071;51.526;-0.134;2022-12-29T14:58:27;99912.56;;;24.43;27.64
74573;BME280;63071;51.526;-0.134;2022-12-29T15:00:53;99912.22;;;24.40;27.50
74573;BME280;63071;51.526;-0.134;2022-12-29T15:06:08;99902.69;;;24.39;27.57
74573;BME280;63071;51.526;-0.134;2022-12-29T15:09:33;99914.88;;;24.40;27.23
74573;BME280;63071;51.526;-0.134;2022-12-29T15:14:00;99911.09;;;24.38;27.29
74573;BME280;63071;51.526;-0.134;2022-12-29T15:16:31;99927.47;;;24.40;27.27
74573;BME280;63071;51.526;-0.134;2022-12-29T15:18:58;99929.41;;;24.39;27.33
74573;BME280;63071;51.526;-0.134;2022-12-29T15:21:27;99937.06;;;24.37;27.47
74573;BME280;63071;51.526;-0.134;2022-12-29T15:23:54;99934.38;;;24.37;27.13